Time;durP1;ratioP1;P1;durP2;ratioP2;P2;SDS_P1;SDS_P2;PMS_P1;PMS_P2;Temp;Humidity;BMP_temperature;BMP_pressure;BME280_temperature;BME280_humidity;BME280_pressure;Samples;Min_cycle;Max_cycle;Signal;HPM_P1;HPM_P2
2023/04/26 00:02:21;;;;;;;10.13;6.68;;;8.70;80.60;;;;;;4994863;28;20039;-64
2023/04/26 00:04:54;;;;;;;10.38;6.82;;;8.70;80.50;;;;;;4993358;28;20782;-63
2023/04/26 00:07:29;;;;;;;10.15;7.05;;;8.70;81.00;;;;;;4989963;28;20047;-63
2023/04/26 00:09:55;;;;;;;11.32;6.63;;;8.70;80.80;;;;;;4993959;28;20097;-64
2023/04/26 00:12:21;;;;;;;10.98;6.22;;;8.70;80.80;;;;;;4990530;28;20042;-64
2023/04/26 00:14:46;;;;;;;10.77;6.97;;;8.70;80.60;;;;;;4994568;28;20430;-63
2023/04/26 00:17:12;;;;;;;9.68;5.90;;;8.80;80.30;;;;;;4992531;28;20030;-64
2023/04/26 00:19:38;;;;;;;9.07;5.63;;;8.80;80.10;;;;;;4993956;28;20034;-63
2023/04/26 00:22:04;;;;;;;11.45;5.70;;;8.80;79.90;;;;;;4992686;28;20096;-64
2023/04/26 00:24:31;;;;;;;12.73;5.72;;;8.80;79.80;;;;;;4994693;28;20034;-64
2023/04/26 00:26:57;;;;;;;9.63;5.72;;;8.80;79.90;;;;;;4993276;28;20030;-64
2023/04/26 00:29:22;;;;;;;10.73;5.80;;;8.80;80.10;;;;;;4989954;28;20039;-64
2023/04/26 00:31:48;;;;;;;7.53;5.38;;;8.80;80.10;;;;;;4993557;28;20061;-64
2023/04/26 00:34:14;;;;;;;8.65;5.80;;;8.80;79.90;;;;;;4994430;28;20034;-64
2023/04/26 00:36:40;;;;;;;7.68;4.55;;;8.80;79.60;;;;;;4993773;28;20038;-64
2023/04/26 00:39:07;;;;;;;9.70;5.32;;;8.80;79.40;;;;;;4993855;28;20121;-63
2023/04/26 00:41:33;;;;;;;11.10;6.05;;;8.70;79.00;;;;;;4994929;28;20027;-64
2023/04/26 00:43:58;;;;;;;9.60;5.72;;;8.70;79.00;;;;;;4998275;28;20038;-64
2023/04/26 00:46:25;;;;;;;6.60;5.53;;;8.70;79.50;;;;;;4996731;28;20233;-64
2023/04/26 00:48:50;;;;;;;9.25;5.60;;;8.70;79.70;;;;;;4998476;28;20042;-64
2023/04/26 00:51:16;;;;;;;9.02;7.00;;;8.70;79.80;;;;;;5000606;28;20035;-64
2023/04/26 00:53:42;;;;;;;11.05;6.72;;;8.70;80.20;;;;;;4996167;28;20042;-64
2023/04/26 00:56:11;;;;;;;9.55;6.53;;;8.70;80.40;;;;;;4998470;28;20302;-64
2023/04/26 00:58:37;;;;;;;10.85;7.07;;;8.70;80.70;;;;;;4997326;28;20041;-64
2023/04/26 01:01:02;;;;;;;9.40;7.05;;;8.70;80.50;;;;;;5022760;28;20022;-64
2023/04/26 01:03:29;;;;;;;12.20;7.28;;;8.70;80.40;;;;;;5014271;28;20057;-64
2023/04/26 01:05:54;;;;;;;10.95;7.10;;;8.70;80.50;;;;;;4996914;28;20038;-64
2023/04/26 01:08:21;;;;;;;11.88;8.05;;;8.70;80.50;;;;;;4999883;28;20037;-64
2023/04/26 01:10:48;;;;;;;12.43;7.28;;;8.70;80.50;;;;;;5005743;28;20494;-64
2023/04/26 01:13:14;;;;;;;13.45;8.50;;;8.70;80.60;;;;;;4999804;28;20081;-64
2023/04/26 01:15:47;;;;;;;13.73;8.98;;;8.70;80.70;;;;;;5000062;28;20390;-64
2023/04/26 01:18:15;;;;;;;12.57;8.43;;;8.70;80.80;;;;;;4996938;28;20038;-64
2023/04/26 01:20:41;;;;;;;11.45;8.18;;;8.70;80.60;;;;;;4995938;28;20030;-64
2023/04/26 01:23:08;;;;;;;14.25;8.05;;;8.70;80.70;;;;;;4987736;28;20040;-64
2023/04/26 01:25:34;;;;;;;15.73;8.50;;;8.70;80.80;;;;;;4990285;28;20035;-63
2023/04/26 01:28:00;;;;;;;11.02;7.53;;;8.70;80.90;;;;;;4989511;28;20066;-64
2023/04/26 01:30:25;;;;;;;15.30;9.48;;;8.80;81.10;;;;;;4994463;28;20560;-64
2023/04/26 01:32:51;;;;;;;15.88;9.75;;;8.80;81.20;;;;;;4988546;28;20070;-64
2023/04/26 01:35:17;;;;;;;15.98;9.23;;;8.80;81.00;;;;;;4993449;28;20255;-63
2023/04/26 01:37:42;;;;;;;21.80;9.95;;;8.70;80.80;;;;;;4998013;28;20065;-64
2023/04/26 01:40:09;;;;;;;19.92;10.25;;;8.70;80.60;;;;;;4988735;28;20097;-64
2023/04/26 01:42:34;;;;;;;19.48;11.23;;;8.70;80.90;;;;;;4991412;28;20034;-64
2023/04/26 01:45:00;;;;;;;15.18;9.43;;;8.70;81.20;;;;;;4995779;28;20052;-64
2023/04/26 01:47:26;;;;;;;12.57;8.20;;;8.70;81.30;;;;;;4991501;28;20038;-64
2023/04/26 01:49:52;;;;;;;12.60;7.97;;;8.70;82.30;;;;;;4992490;28;20554;-64
2023/04/26 01:52:17;;;;;;;12.25;7.43;;;8.70;81.50;;;;;;4997744;28;20231;-64
2023/04/26 01:54:43;;;;;;;10.48;7.22;;;8.70;81.50;;;;;;4994251;28;20026;-64
2023/04/26 01:57:08;;;;;;;11.70;7.43;;;8.70;81.40;;;;;;4993627;28;20042;-64
2023/04/26 01:59:34;;;;;;;9.82;7.25;;;8.70;81.50;;;;;;4994560;28;20061;-64
2023/04/26 02:02:00;;;;;;;10.10;7.57;;;8.70;81.40;;;;;;4997006;28;20125;-64
2023/04/26 02:04:26;;;;;;;10.45;7.70;;;8.70;81.50;;;;;;4990813;28;20057;-63
2023/04/26 02:06:52;;;;;;;11.40;7.63;;;8.70;81.70;;;;;;4992684;28;20038;-64
2023/04/26 02:09:17;;;;;;;9.70;7.40;;;8.70;81.30;;;;;;4998288;28;20042;-63
2023/04/26 02:11:43;;;;;;;8.82;6.43;;;8.80;81.20;;;;;;5000472;28;20135;-64
2023/04/26 02:14:09;;;;;;;8.30;6.60;;;8.80;81.00;;;;;;4996051;28;20439;-63
2023/04/26 02:16:35;;;;;;;10.15;7.25;;;8.80;81.00;;;;;;4994979;28;20038;-64
2023/04/26 02:19:02;;;;;;;9.85;6.85;;;8.70;80.80;;;;;;4998666;28;20448;-64
2023/04/26 02:21:29;;;;;;;10.57;7.05;;;8.70;80.70;;;;;;4989637;28;20088;-63
2023/04/26 02:23:55;;;;;;;11.68;7.22;;;8.80;80.80;;;;;;4986312;28;20117;-64
2023/04/26 02:26:20;;;;;;;10.38;7.75;;;8.70;80.90;;;;;;4990607;28;20276;-64
2023/04/26 02:28:46;;;;;;;10.60;7.43;;;8.70;81.00;;;;;;4986589;28;20030;-64
2023/04/26 02:31:12;;;;;;;12.63;7.45;;;8.70;81.10;;;;;;4991854;28;20065;-64
2023/04/26 02:33:37;;;;;;;11.40;7.38;;;8.70;81.10;;;;;;4993930;28;20050;-63
2023/04/26 02:36:04;;;;;;;8.98;6.68;;;8.70;81.20;;;;;;4992672;28;20045;-63
2023/04/26 02:38:35;;;;;;;10.48;7.40;;;8.70;81.20;;;;;;4992065;28;20034;-62
2023/04/26 02:41:02;;;;;;;9.50;7.07;;;8.70;81.50;;;;;;4992858;28;20035;-63
2023/04/26 02:43:27;;;;;;;10.70;7.20;;;8.70;81.60;;;;;;4993720;28;20030;-63
2023/04/26 02:45:53;;;;;;;9.23;6.78;;;8.70;81.60;;;;;;4993549;28;20540;-64
2023/04/26 02:48:19;;;;;;;12.18;7.53;;;8.70;81.50;;;;;;4996540;28;20042;-63
2023/04/26 02:50:46;;;;;;;10.60;7.70;;;8.70;81.50;;;;;;4993668;28;20034;-64
2023/04/26 02:53:11;;;;;;;9.80;7.07;;;8.70;81.50;;;;;;4994684;28;20034;-63
2023/04/26 02:55:38;;;;;;;10.68;7.43;;;8.70;81.70;;;;;;4991070;28;20489;-63
2023/04/26 02:58:05;;;;;;;11.52;7.30;;;8.70;81.70;;;;;;4988383;28;20058;-64
2023/04/26 03:00:32;;;;;;;9.05;7.10;;;8.70;81.70;;;;;;4992376;28;20033;-64
2023/04/26 03:02:58;;;;;;;9.73;6.75;;;8.70;81.70;;;;;;4996346;28;20037;-64
2023/04/26 03:05:24;;;;;;;9.45;7.28;;;8.70;81.70;;;;;;4988964;28;20489;-64
2023/04/26 03:07:51;;;;;;;10.48;6.93;;;8.70;81.70;;;;;;4989410;28;20096;-63
2023/04/26 03:10:17;;;;;;;11.13;7.20;;;8.70;81.50;;;;;;4997706;28;20031;-64
2023/04/26 03:12:42;;;;;;;11.68;7.50;;;8.70;81.50;;;;;;4996499;28;20048;-64
2023/04/26 03:15:08;;;;;;;9.60;6.55;;;8.60;81.50;;;;;;4994016;28;20034;-63
2023/04/26 03:17:34;;;;;;;8.88;7.25;;;8.60;81.60;;;;;;4994708;28;20048;-64
2023/04/26 03:19:59;;;;;;;10.02;7.05;;;8.60;81.80;;;;;;4994803;28;20564;-64
2023/04/26 03:22:25;;;;;;;9.65;6.97;;;8.60;81.90;;;;;;4987038;28;20490;-64
2023/04/26 03:24:50;;;;;;;9.73;7.22;;;8.60;82.00;;;;;;4989232;28;20058;-63
2023/04/26 03:27:16;;;;;;;10.15;6.80;;;8.60;82.00;;;;;;4986395;28;20038;-63
2023/04/26 03:29:42;;;;;;;10.23;6.95;;;8.60;82.00;;;;;;4990021;28;20046;-65
2023/04/26 03:32:07;;;;;;;8.27;6.78;;;8.70;82.00;;;;;;4988948;28;20045;-64
2023/04/26 03:34:33;;;;;;;11.30;6.90;;;8.70;81.90;;;;;;4991889;28;20076;-63
2023/04/26 03:36:58;;;;;;;8.55;6.95;;;8.70;81.90;;;;;;4988408;28;20401;-64
2023/04/26 03:39:24;;;;;;;8.90;6.43;;;8.70;81.70;;;;;;4992640;28;20039;-64
2023/04/26 03:41:49;;;;;;;9.48;7.07;;;8.70;81.80;;;;;;4990311;28;20189;-63
2023/04/26 03:44:15;;;;;;;9.65;7.00;;;8.70;81.90;;;;;;4992378;28;20057;-64
2023/04/26 03:46:41;;;;;;;9.77;6.78;;;8.70;81.90;;;;;;4988072;28;20121;-63
2023/04/26 03:49:07;;;;;;;10.40;7.25;;;8.70;82.00;;;;;;4991361;28;20332;-63
2023/04/26 03:51:32;;;;;;;9.25;6.80;;;8.70;81.90;;;;;;4994703;28;20109;-64
2023/04/26 03:53:58;;;;;;;10.90;6.78;;;8.70;82.00;;;;;;4991428;28;20066;-63
2023/04/26 03:56:25;;;;;;;8.50;6.75;;;8.70;81.90;;;;;;4988776;28;20154;-63
2023/04/26 03:58:51;;;;;;;12.27;7.05;;;8.70;81.70;;;;;;4990266;28;20038;-64
2023/04/26 04:01:16;;;;;;;9.65;6.88;;;8.70;81.60;;;;;;4992487;28;20060;-64
2023/04/26 04:03:42;;;;;;;10.02;6.53;;;8.70;81.70;;;;;;4988110;28;20077;-63
2023/04/26 04:06:08;;;;;;;10.43;6.65;;;8.60;81.70;;;;;;4989962;28;20062;-63
2023/04/26 04:08:33;;;;;;;8.65;7.00;;;8.70;81.80;;;;;;4990393;28;20046;-64
2023/04/26 04:11:00;;;;;;;10.05;7.25;;;8.60;81.80;;;;;;4992055;28;20502;-63
2023/04/26 04:13:26;;;;;;;9.55;6.40;;;8.60;81.70;;;;;;4991558;28;20042;-63
2023/04/26 04:15:51;;;;;;;8.90;6.65;;;8.70;81.80;;;;;;4991153;28;20038;-63
2023/04/26 04:18:17;;;;;;;7.60;6.00;;;8.70;81.90;;;;;;4988349;28;20541;-63
2023/04/26 04:20:43;;;;;;;9.45;6.43;;;8.70;81.70;;;;;;4991607;28;20386;-64
2023/04/26 04:23:08;;;;;;;8.68;6.68;;;8.70;81.70;;;;;;4987144;28;20034;-64
2023/04/26 04:25:34;;;;;;;8.98;7.30;;;8.70;81.70;;;;;;4991473;28;20476;-63
2023/04/26 04:28:01;;;;;;;9.70;6.82;;;8.60;81.70;;;;;;4989130;28;20037;-63
2023/04/26 04:30:30;;;;;;;8.63;6.70;;;8.70;81.70;;;;;;4990952;28;20096;-63
2023/04/26 04:32:58;;;;;;;9.52;6.88;;;8.60;81.60;;;;;;4987673;28;20145;-63
2023/04/26 04:35:27;;;;;;;8.63;6.30;;;8.60;81.50;;;;;;4995793;28;20029;-63
2023/04/26 04:37:55;;;;;;;10.45;7.10;;;8.60;81.50;;;;;;4995457;28;20592;-63
2023/04/26 04:40:21;;;;;;;9.93;7.28;;;8.60;81.70;;;;;;4996250;28;20038;-63
2023/04/26 04:42:48;;;;;;;13.05;9.27;;;8.50;81.80;;;;;;4994835;28;20054;-63
2023/04/26 04:45:13;;;;;;;11.75;8.93;;;8.50;81.90;;;;;;4993304;28;20045;-63
2023/04/26 04:47:39;;;;;;;12.25;8.48;;;8.50;82.00;;;;;;4994656;28;20038;-64
2023/04/26 04:50:06;;;;;;;9.57;7.47;;;8.50;82.10;;;;;;4995412;28;20420;-63
2023/04/26 04:52:32;;;;;;;12.98;7.80;;;8.50;82.20;;;;;;4993861;28;20124;-63
2023/04/26 04:54:58;;;;;;;10.88;7.75;;;8.50;82.40;;;;;;4997144;28;20125;-64
2023/04/26 04:57:23;;;;;;;10.43;7.45;;;8.50;82.40;;;;;;5015822;28;20025;-64
2023/04/26 04:59:50;;;;;;;11.80;8.52;;;8.50;82.40;;;;;;5003798;28;20293;-64
2023/04/26 05:02:15;;;;;;;9.77;8.15;;;8.50;82.40;;;;;;4995950;28;20085;-63
2023/04/26 05:04:41;;;;;;;8.40;7.13;;;8.50;82.40;;;;;;4990984;28;20711;-64
2023/04/26 05:07:06;;;;;;;12.18;8.20;;;8.60;82.50;;;;;;4992601;28;20030;-64
2023/04/26 05:09:32;;;;;;;10.50;7.80;;;8.60;82.50;;;;;;4997007;28;20137;-64
2023/04/26 05:11:58;;;;;;;10.43;7.80;;;8.60;82.40;;;;;;4997315;28;20049;-64
2023/04/26 05:14:23;;;;;;;10.80;7.82;;;8.70;82.50;;;;;;4996329;28;20034;-64
2023/04/26 05:16:49;;;;;;;10.07;7.20;;;8.70;82.50;;;;;;4996329;28;20076;-64
2023/04/26 05:19:14;;;;;;;11.60;7.60;;;8.70;82.40;;;;;;4996259;28;20345;-64
2023/04/26 05:21:40;;;;;;;9.40;7.50;;;8.70;82.40;;;;;;4995920;28;20038;-63
2023/04/26 05:24:06;;;;;;;8.57;6.97;;;8.70;82.20;;;;;;4993023;28;20125;-63
2023/04/26 05:26:33;;;;;;;10.70;7.82;;;8.70;83.10;;;;;;4995458;28;20061;-63
2023/04/26 05:28:59;;;;;;;12.27;7.85;;;8.70;82.60;;;;;;4995303;28;20061;-64
2023/04/26 05:31:24;;;;;;;9.90;7.40;;;8.70;82.60;;;;;;4997340;28;20069;-64
2023/04/26 05:33:50;;;;;;;10.00;7.45;;;8.70;82.50;;;;;;4998444;28;20049;-64
2023/04/26 05:36:16;;;;;;;11.02;7.90;;;8.70;82.60;;;;;;4996675;28;20030;-64
2023/04/26 05:38:41;;;;;;;13.73;8.70;;;8.70;82.60;;;;;;4996261;28;20056;-64
2023/04/26 05:41:07;;;;;;;15.05;9.48;;;8.70;82.60;;;;;;4998217;28;20039;-64
2023/04/26 05:43:32;;;;;;;13.30;9.25;;;8.80;82.70;;;;;;5006053;28;20041;-64
2023/04/26 05:45:59;;;;;;;11.57;8.48;;;8.80;82.80;;;;;;5017207;28;20099;-64
2023/04/26 05:48:25;;;;;;;11.05;8.27;;;8.80;82.90;;;;;;5016235;28;20041;-64
2023/04/26 05:50:51;;;;;;;11.73;7.70;;;8.90;82.70;;;;;;5014393;28;20514;-64
2023/04/26 05:53:18;;;;;;;10.68;7.93;;;8.90;82.60;;;;;;4995697;28;20044;-64
2023/04/26 05:55:44;;;;;;;11.63;8.60;;;8.90;82.60;;;;;;4996754;28;20079;-64
2023/04/26 05:58:10;;;;;;;13.18;9.00;;;8.90;82.20;;;;;;4998815;28;20042;-64
2023/04/26 06:00:37;;;;;;;11.18;7.95;;;8.90;82.20;;;;;;4997359;28;20034;-64
2023/04/26 06:03:03;;;;;;;12.43;8.25;;;8.80;82.00;;;;;;4992746;28;20048;-64
2023/04/26 06:05:30;;;;;;;11.38;7.93;;;8.90;82.00;;;;;;4996702;28;20034;-64
2023/04/26 06:07:56;;;;;;;10.50;7.75;;;8.80;82.40;;;;;;4996056;28;20041;-64
2023/04/26 06:10:21;;;;;;;10.38;7.40;;;8.80;82.00;;;;;;4999148;28;20038;-64
2023/04/26 06:12:47;;;;;;;11.07;8.43;;;8.70;82.00;;;;;;4997814;28;20048;-64
2023/04/26 06:15:13;;;;;;;15.40;8.10;;;8.70;82.30;;;;;;4997368;28;20061;-63
2023/04/26 06:17:40;;;;;;;11.65;7.95;;;8.70;82.00;;;;;;4996505;28;20030;-64
2023/04/26 06:20:07;;;;;;;10.80;8.15;;;8.70;82.40;;;;;;4996902;28;20045;-64
2023/04/26 06:22:34;;;;;;;11.32;7.72;;;8.70;82.70;;;;;;4999126;28;20084;-64
2023/04/26 06:24:59;;;;;;;10.80;7.95;;;8.70;83.20;;;;;;4997657;28;20081;-64
2023/04/26 06:27:25;;;;;;;11.68;7.82;;;8.70;83.40;;;;;;4997534;28;20515;-64
2023/04/26 06:29:51;;;;;;;11.18;7.88;;;8.70;83.30;;;;;;4995985;28;20033;-64
2023/04/26 06:32:16;;;;;;;12.20;8.07;;;8.70;82.90;;;;;;4995120;28;20049;-64
2023/04/26 06:34:44;;;;;;;9.75;7.38;;;8.70;82.60;;;;;;4995198;28;20417;-63
2023/04/26 06:37:10;;;;;;;10.80;7.78;;;8.60;82.60;;;;;;5000191;28;20045;-64
2023/04/26 06:39:37;;;;;;;11.50;7.53;;;8.60;82.60;;;;;;4996849;28;20037;-63
2023/04/26 06:42:06;;;;;;;12.32;7.80;;;8.60;82.40;;;;;;4996965;28;20389;-64
2023/04/26 06:44:31;;;;;;;11.88;7.57;;;8.60;82.00;;;;;;4993933;28;20569;-63
2023/04/26 06:46:57;;;;;;;13.13;7.97;;;8.60;81.90;;;;;;4997989;28;20116;-63
2023/04/26 06:49:23;;;;;;;10.82;8.05;;;8.60;82.20;;;;;;4995075;28;20126;-63
2023/04/26 06:51:51;;;;;;;13.57;8.70;;;8.60;82.10;;;;;;4996263;28;20034;-64
2023/04/26 06:54:17;;;;;;;16.98;8.48;;;8.60;82.00;;;;;;4996659;28;20042;-64
2023/04/26 06:56:43;;;;;;;14.02;8.77;;;8.70;81.60;;;;;;4997309;28;20044;-64
2023/04/26 06:59:09;;;;;;;12.75;8.60;;;8.70;81.10;;;;;;4992251;28;20042;-64
2023/04/26 07:01:34;;;;;;;13.55;8.60;;;8.70;80.50;;;;;;4996952;28;20042;-64
2023/04/26 07:04:09;;;;;;;13.60;9.25;;;8.60;80.50;;;;;;4991626;28;20239;-64
2023/04/26 07:06:36;;;;;;;15.00;9.98;;;8.60;80.80;;;;;;4996704;28;20026;-63
2023/04/26 07:09:02;;;;;;;16.02;10.68;;;8.70;81.10;;;;;;4996439;28;20042;-64
2023/04/26 07:11:27;;;;;;;19.48;10.45;;;8.70;80.50;;;;;;5003060;28;20552;-64
2023/04/26 07:13:54;;;;;;;20.20;10.68;;;8.70;80.10;;;;;;4995279;28;20069;-64
2023/04/26 07:16:20;;;;;;;14.60;10.55;;;8.70;80.00;;;;;;4998411;28;20064;-63
2023/04/26 07:18:47;;;;;;;17.52;10.05;;;8.70;80.00;;;;;;4995976;28;20479;-63
2023/04/26 07:21:13;;;;;;;14.93;9.90;;;8.70;80.00;;;;;;4997283;28;20046;-64
2023/04/26 07:23:38;;;;;;;16.77;10.32;;;8.80;80.10;;;;;;4992476;28;20034;-63
2023/04/26 07:26:04;;;;;;;16.08;10.27;;;8.80;79.80;;;;;;4997997;28;20390;-64
2023/04/26 07:28:30;;;;;;;16.20;10.15;;;8.90;80.10;;;;;;4994469;28;20033;-63
2023/04/26 07:30:57;;;;;;;18.48;10.30;;;8.90;80.40;;;;;;4993113;28;20045;-64
2023/04/26 07:33:23;;;;;;;18.30;10.85;;;9.00;80.50;;;;;;4996896;28;20704;-64
2023/04/26 07:35:56;;;;;;;18.10;10.77;;;9.10;80.60;;;;;;4993909;28;20041;-64
2023/04/26 07:38:22;;;;;;;16.70;10.52;;;9.10;80.50;;;;;;4992484;28;20164;-64
2023/04/26 07:40:48;;;;;;;16.70;10.82;;;9.20;80.40;;;;;;4996741;28;20040;-64
2023/04/26 07:43:14;;;;;;;15.35;9.68;;;9.30;80.20;;;;;;4993278;28;20030;-64
2023/04/26 07:45:40;;;;;;;15.18;9.77;;;9.40;80.10;;;;;;4996348;28;20030;-63
2023/04/26 07:48:06;;;;;;;14.80;9.45;;;9.50;79.60;;;;;;4995631;28;20038;-64
2023/04/26 07:50:32;;;;;;;15.85;9.73;;;9.60;79.30;;;;;;4996130;28;20296;-64
2023/04/26 07:52:57;;;;;;;14.65;9.57;;;9.70;79.30;;;;;;4994224;28;20038;-64
2023/04/26 07:55:23;;;;;;;14.55;9.40;;;9.70;78.90;;;;;;4995428;28;20403;-64
2023/04/26 07:57:49;;;;;;;14.90;8.65;;;9.80;78.70;;;;;;4997044;28;20030;-64
2023/04/26 08:00:15;;;;;;;15.70;9.63;;;9.90;79.50;;;;;;4997129;28;20035;-64
2023/04/26 08:02:41;;;;;;;13.23;9.27;;;9.90;78.20;;;;;;4988754;28;20041;-63
2023/04/26 08:05:07;;;;;;;14.70;9.23;;;9.90;78.00;;;;;;4993597;28;20030;-64
2023/04/26 08:07:33;;;;;;;13.57;8.63;;;10.00;77.90;;;;;;4994787;28;20038;-64
2023/04/26 08:09:59;;;;;;;12.90;8.70;;;10.10;77.80;;;;;;4993334;28;20512;-63
2023/04/26 08:12:25;;;;;;;16.00;8.80;;;10.10;77.30;;;;;;4995519;28;20051;-61
2023/04/26 08:14:51;;;;;;;13.18;9.40;;;10.20;77.40;;;;;;4989357;28;20045;-64
2023/04/26 08:17:16;;;;;;;13.32;9.07;;;10.20;77.40;;;;;;4997398;28;20105;-64
2023/04/26 08:19:42;;;;;;;13.40;8.23;;;10.30;77.50;;;;;;5005292;28;21078;-62
2023/04/26 08:22:07;;;;;;;12.77;8.20;;;10.30;77.30;;;;;;5018455;28;20083;-63
2023/04/26 08:24:33;;;;;;;14.05;8.10;;;10.30;76.90;;;;;;4996774;28;20038;-63
2023/04/26 08:26:58;;;;;;;13.40;7.82;;;10.40;76.60;;;;;;4992051;28;20044;-63
2023/04/26 08:29:26;;;;;;;11.45;7.75;;;10.40;76.30;;;;;;4991607;28;20030;-63
2023/04/26 08:31:52;;;;;;;12.57;8.15;;;10.40;75.60;;;;;;4992673;28;20034;-63
2023/04/26 08:34:17;;;;;;;14.27;8.85;;;10.50;75.40;;;;;;4993353;28;20041;-63
2023/04/26 08:36:44;;;;;;;14.00;8.82;;;10.50;74.90;;;;;;4993376;28;20559;-62
2023/04/26 08:39:11;;;;;;;12.95;8.43;;;10.50;75.00;;;;;;4994579;28;20038;-64
2023/04/26 08:41:42;;;;;;;12.10;8.23;;;10.50;74.60;;;;;;4998191;28;20533;-64
2023/04/26 08:44:08;;;;;;;10.48;8.20;;;10.50;75.30;;;;;;4997009;28;20038;-63
2023/04/26 08:47:03;;;;;;;11.25;8.57;;;10.50;75.80;;;;;;4993261;28;20038;-63
2023/04/26 08:49:43;;;;;;;17.15;9.48;;;10.50;76.00;;;;;;4995709;28;20518;-63
2023/04/26 08:52:12;;;;;;;11.45;8.30;;;10.60;75.10;;;;;;4995749;28;20039;-63
2023/04/26 08:54:39;;;;;;;13.05;8.70;;;10.60;76.00;;;;;;4991496;28;20109;-63
2023/04/26 08:57:08;;;;;;;12.10;8.25;;;10.70;75.70;;;;;;4993329;28;20038;-63
2023/04/26 08:59:38;;;;;;;11.57;8.23;;;10.70;75.80;;;;;;4993613;28;20034;-64
2023/04/26 09:02:05;;;;;;;16.00;8.68;;;10.80;75.80;;;;;;4996786;28;20434;-63
2023/04/26 09:04:32;;;;;;;11.10;8.10;;;10.80;73.90;;;;;;4998588;28;20041;-64
2023/04/26 09:07:02;;;;;;;12.55;8.07;;;10.80;73.90;;;;;;5000729;28;20046;-61
2023/04/26 09:09:32;;;;;;;10.35;7.43;;;10.90;74.20;;;;;;4999836;28;20094;-64
2023/04/26 09:12:00;;;;;;;13.60;6.50;;;10.90;74.70;;;;;;5002988;28;20076;-63
2023/04/26 09:14:26;;;;;;;11.07;5.90;;;11.00;74.30;;;;;;5000997;28;20109;-64
2023/04/26 09:16:53;;;;;;;9.80;6.40;;;11.00;74.00;;;;;;4993493;28;20029;-63
2023/04/26 09:19:39;;;;;;;9.35;5.93;;;11.10;73.90;;;;;;5000437;28;20039;-63
2023/04/26 09:22:05;;;;;;;7.22;5.15;;;11.20;71.90;;;;;;4998088;28;20026;-64
2023/04/26 09:24:47;;;;;;;9.75;5.50;;;11.20;72.50;;;;;;4997187;28;20034;-64
2023/04/26 09:27:13;;;;;;;6.72;5.15;;;11.30;72.20;;;;;;4996273;28;20061;-63
2023/04/26 09:29:38;;;;;;;6.07;4.55;;;11.30;72.00;;;;;;5000860;28;20481;-64
2023/04/26 09:32:04;;;;;;;7.68;4.75;;;11.40;71.80;;;;;;4999560;28;20026;-63
2023/04/26 09:34:45;;;;;;;5.80;4.68;;;11.40;72.10;;;;;;4995295;28;20030;-64
2023/04/26 09:37:12;;;;;;;7.40;4.22;;;11.50;71.80;;;;;;4998399;28;20108;-63
2023/04/26 09:39:40;;;;;;;7.05;4.38;;;11.60;72.10;;;;;;4997243;28;20125;-63
2023/04/26 09:42:07;;;;;;;5.95;3.83;;;11.70;69.90;;;;;;5000876;28;20031;-63
2023/04/26 09:44:33;;;;;;;4.20;3.70;;;11.70;70.70;;;;;;4997686;28;20546;-64
2023/04/26 09:47:04;;;;;;;7.68;4.57;;;11.80;71.30;;;;;;4998097;28;20123;-63
2023/04/26 09:49:51;;;;;;;6.25;4.68;;;11.80;70.50;;;;;;4996345;28;20057;-64
2023/04/26 09:52:17;;;;;;;6.53;4.60;;;11.90;70.20;;;;;;4998501;28;20582;-63
2023/04/26 09:54:44;;;;;;;6.97;4.43;;;12.00;69.90;;;;;;4998483;28;20531;-63
2023/04/26 09:57:15;;;;;;;7.25;4.72;;;11.90;68.40;;;;;;4999566;28;20030;-64
2023/04/26 09:59:51;;;;;;;6.40;4.30;;;11.90;68.10;;;;;;4997465;28;20244;-63
2023/04/26 10:02:25;;;;;;;6.28;4.32;;;11.90;68.20;;;;;;4998101;28;20052;-64
2023/04/26 10:04:55;;;;;;;5.25;4.10;;;12.00;68.80;;;;;;4998272;28;20042;-63
2023/04/26 10:07:22;;;;;;;3.42;2.70;;;12.10;69.30;;;;;;4995965;28;20124;-63
2023/04/26 10:09:49;;;;;;;4.05;2.70;;;12.10;66.20;;;;;;4996541;28;20038;-63
2023/04/26 10:12:17;;;;;;;5.38;2.70;;;12.20;66.40;;;;;;4999800;28;20030;-64
2023/04/26 10:14:45;;;;;;;5.82;2.75;;;12.20;65.60;;;;;;4997456;28;20081;-63
2023/04/26 10:17:12;;;;;;;5.47;3.65;;;12.30;66.40;;;;;;4998544;28;20057;-63
2023/04/26 10:19:45;;;;;;;3.83;2.88;;;12.40;65.90;;;;;;4996585;28;20041;-63
2023/04/26 10:22:27;;;;;;;4.10;2.80;;;12.40;64.90;;;;;;4995689;28;20184;-63
2023/04/26 10:24:54;;;;;;;3.83;3.20;;;12.50;64.20;;;;;;4996645;28;20558;-63
2023/04/26 10:27:42;;;;;;;4.43;3.30;;;12.50;64.80;;;;;;4998591;28;20042;-63
2023/04/26 10:30:09;;;;;;;4.25;3.08;;;12.50;63.40;;;;;;4995610;28;20080;-62
2023/04/26 10:32:57;;;;;;;5.32;3.50;;;12.50;64.10;;;;;;4996427;28;20078;-61
2023/04/26 10:35:27;;;;;;;4.88;2.97;;;12.60;63.80;;;;;;4998121;28;20049;-63
2023/04/26 10:37:59;;;;;;;3.65;1.98;;;12.60;65.00;;;;;;4995484;28;20369;-64
2023/04/26 10:40:30;;;;;;;2.67;1.83;;;12.70;60.40;;;;;;4997305;28;20026;-63
2023/04/26 10:43:18;;;;;;;3.28;2.22;;;12.70;63.00;;;;;;5016409;28;20033;-64
2023/04/26 10:45:45;;;;;;;2.45;2.00;;;12.70;61.00;;;;;;5018512;28;20497;-63
2023/04/26 10:48:20;;;;;;;2.58;2.03;;;12.80;61.60;;;;;;5017579;28;20045;-63
2023/04/26 10:51:00;;;;;;;2.80;2.08;;;12.70;62.00;;;;;;5016625;28;20476;-63
2023/04/26 10:53:46;;;;;;;3.58;2.10;;;12.80;61.50;;;;;;5018869;28;20129;-63
2023/04/26 10:56:37;;;;;;;3.60;1.90;;;12.90;60.10;;;;;;5018768;28;20033;-63
2023/04/26 10:59:11;;;;;;;2.88;1.90;;;12.90;59.30;;;;;;5010941;28;20244;-62
2023/04/26 11:01:39;;;;;;;2.70;2.17;;;12.90;58.70;;;;;;4996950;28;20045;-63
2023/04/26 11:04:11;;;;;;;4.45;2.05;;;12.90;59.20;;;;;;4997718;28;20097;-63
2023/04/26 11:06:53;;;;;;;2.75;1.80;;;12.90;58.50;;;;;;4999010;28;20030;-62
2023/04/26 11:09:38;;;;;;;2.75;2.10;;;12.90;58.10;;;;;;4998683;28;20039;-63
2023/04/26 11:12:04;;;;;;;;;;;12.90;58.20;;;;;;5001395;28;20125;-63
2023/04/26 11:14:30;;;;;;;3.17;1.70;;;12.90;58.10;;;;;;4996921;28;19920;-64
2023/04/26 11:16:56;;;;;;;3.35;2.17;;;12.90;60.90;;;;;;4998442;28;20535;-63
2023/04/26 11:19:25;;;;;;;3.80;2.00;;;13.00;60.80;;;;;;4999879;28;20083;-63
2023/04/26 11:21:51;;;;;;;3.60;2.33;;;13.10;60.50;;;;;;4997681;28;20033;-63
2023/04/26 11:24:25;;;;;;;6.60;2.90;;;13.20;60.30;;;;;;5001787;28;20050;-62
2023/04/26 11:26:52;;;;;;;3.58;2.10;;;13.30;59.40;;;;;;5001025;28;20042;-63
2023/04/26 11:29:21;;;;;;;4.82;2.53;;;13.40;59.30;;;;;;5000744;28;20034;-63
2023/04/26 11:31:53;;;;;;;3.38;2.00;;;13.50;59.90;;;;;;4998608;28;20099;-63
2023/04/26 11:34:40;;;;;;;2.58;2.03;;;13.60;59.50;;;;;;4998468;28;20164;-63
2023/04/26 11:37:06;;;;;;;2.88;1.90;;;13.70;59.60;;;;;;4996624;28;20092;-64
2023/04/26 11:39:36;;;;;;;2.97;1.83;;;13.80;59.40;;;;;;4998147;28;20049;-64
2023/04/26 11:42:09;;;;;;;3.10;1.92;;;13.90;58.40;;;;;;4997185;28;20049;-61
2023/04/26 11:44:36;;;;;;;3.50;1.90;;;14.00;58.20;;;;;;4995656;28;20426;-63
2023/04/26 11:47:02;;;;;;;2.65;2.10;;;13.90;57.00;;;;;;4996388;28;20034;-63
2023/04/26 11:49:30;;;;;;;4.63;2.10;;;13.90;57.80;;;;;;4997265;28;20052;-63
2023/04/26 11:51:55;;;;;;;7.10;3.17;;;14.00;58.50;;;;;;4999137;28;20042;-63
2023/04/26 11:54:32;;;;;;;2.70;2.20;;;14.00;58.50;;;;;;4992132;28;20145;-63
2023/04/26 11:56:58;;;;;;;3.20;2.05;;;14.10;57.90;;;;;;4993864;28;20041;-63
2023/04/26 11:59:28;;;;;;;4.50;2.58;;;14.20;58.40;;;;;;4997285;28;20053;-63
2023/04/26 12:01:55;;;;;;;3.97;1.90;;;14.20;58.20;;;;;;4997539;28;20041;-63
2023/04/26 12:04:28;;;;;;;1.95;1.60;;;14.40;57.40;;;;;;4995264;28;20052;-63
2023/04/26 12:06:55;;;;;;;3.38;1.90;;;14.40;56.90;;;;;;4996994;28;20042;-63
2023/04/26 12:09:27;;;;;;;3.03;1.83;;;14.40;56.70;;;;;;4997538;28;20160;-63
2023/04/26 12:12:05;;;;;;;2.08;1.88;;;14.40;55.80;;;;;;4998257;28;20030;-63
2023/04/26 12:14:38;;;;;;;4.30;1.98;;;14.40;55.30;;;;;;4996231;28;20034;-64
2023/04/26 12:17:06;;;;;;;2.35;1.85;;;14.40;55.90;;;;;;4996483;28;20055;-63
2023/04/26 12:19:36;;;;;;;3.53;1.90;;;14.30;56.90;;;;;;4997910;28;20216;-63
2023/04/26 12:22:02;;;;;;;1.85;1.55;;;14.30;57.10;;;;;;4991741;28;20038;-63
2023/04/26 12:24:33;;;;;;;3.17;2.00;;;14.30;57.10;;;;;;4992783;28;20041;-64
2023/04/26 12:26:59;;;;;;;3.10;1.98;;;14.30;57.10;;;;;;4996530;28;20111;-61
2023/04/26 12:29:26;;;;;;;2.17;1.70;;;14.40;57.20;;;;;;4996446;28;20030;-63
2023/04/26 12:31:52;;;;;;;2.22;1.60;;;14.50;57.40;;;;;;4996253;28;20060;-63
2023/04/26 12:34:17;;;;;;;2.72;1.67;;;14.50;56.90;;;;;;4995798;28;20042;-63
2023/04/26 12:36:43;;;;;;;1.73;1.45;;;14.60;57.00;;;;;;4995876;28;20037;-63
2023/04/26 12:39:14;;;;;;;1.90;1.70;;;14.60;57.20;;;;;;4995223;28;20651;-63
2023/04/26 12:41:41;;;;;;;2.00;1.58;;;14.60;57.20;;;;;;4995407;28;20525;-63
2023/04/26 12:44:10;;;;;;;1.77;1.63;;;14.70;57.40;;;;;;4995952;28;20596;-63
2023/04/26 12:46:35;;;;;;;3.28;2.00;;;14.70;56.40;;;;;;4996538;28;20046;-63
2023/04/26 12:49:02;;;;;;;2.58;1.95;;;14.70;54.90;;;;;;4996904;28;20687;-63
2023/04/26 12:51:28;;;;;;;2.25;1.83;;;14.70;55.60;;;;;;4996521;28;20383;-62